sensor_id;sensor_type;location;lat;lon;timestamp;temperature;humidity
73112;HTU21D;61301;51.956;5.876;2022-10-30T00:02:14;20.26;56.72
73112;HTU21D;61301;51.956;5.876;2022-10-30T00:04:40;20.20;56.71
73112;HTU21D;61301;51.956;5.876;2022-10-30T00:07:06;20.18;56.74
73112;HTU21D;61301;51.956;5.876;2022-10-30T00:09:32;20.16;56.77
73112;HTU21D;61301;51.956;5.876;2022-10-30T00:11:58;20.13;56.77
73112;HTU21D;61301;51.956;5.876;2022-10-30T00:14:24;20.05;56.86
73112;HTU21D;61301;51.956;5.876;2022-10-30T00:16:50;20.02;56.87
73112;HTU21D;61301;51.956;5.876;2022-10-30T00:19:16;19.96;56.94
73112;HTU21D;61301;51.956;5.876;2022-10-30T00:21:42;19.91;56.95
73112;HTU21D;61301;51.956;5.876;2022-10-30T00:24:09;19.88;56.97
73112;HTU21D;61301;51.956;5.876;2022-10-30T00:26:35;19.83;57.00
73112;HTU21D;61301;51.956;5.876;2022-10-30T00:29:01;19.79;57.03
73112;HTU21D;61301;51.956;5.876;2022-10-30T00:31:35;19.73;57.10
73112;HTU21D;61301;51.956;5.876;2022-10-30T00:34:01;19.69;57.13
73112;HTU21D;61301;51.956;5.876;2022-10-30T00:36:27;19.58;57.23
73112;HTU21D;61301;51.956;5.876;2022-10-30T00:38:53;19.47;57.44
73112;HTU21D;61301;51.956;5.876;2022-10-30T00:41:21;19.39;57.69
73112;HTU21D;61301;51.956;5.876;2022-10-30T00:43:48;19.39;57.67
73112;HTU21D;61301;51.956;5.876;2022-10-30T00:46:19;19.38;57.67
73112;HTU21D;61301;51.956;5.876;2022-10-30T00:49:12;19.32;57.75
73112;HTU21D;61301;51.956;5.876;2022-10-30T00:51:49;19.23;57.97
73112;HTU21D;61301;51.956;5.876;2022-10-30T00:54:17;19.15;57.93
73112;HTU21D;61301;51.956;5.876;2022-10-30T00:56:45;19.09;58.00
73112;HTU21D;61301;51.956;5.876;2022-10-30T00:59:15;19.06;57.95
73112;HTU21D;61301;51.956;5.876;2022-10-30T01:01:44;19.05;57.96
73112;HTU21D;61301;51.956;5.876;2022-10-30T01:04:11;19.02;57.99
73112;HTU21D;61301;51.956;5.876;2022-10-30T01:06:41;18.98;58.02
73112;HTU21D;61301;51.956;5.876;2022-10-30T01:09:08;18.95;58.00
73112;HTU21D;61301;51.956;5.876;2022-10-30T01:11:35;18.95;58.03
73112;HTU21D;61301;51.956;5.876;2022-10-30T01:14:06;18.95;58.04
73112;HTU21D;61301;51.956;5.876;2022-10-30T01:25:08;18.82;58.14
73112;HTU21D;61301;51.956;5.876;2022-10-30T01:36:13;18.72;58.35
73112;HTU21D;61301;51.956;5.876;2022-10-30T01:38:47;18.66;58.43
73112;HTU21D;61301;51.956;5.876;2022-10-30T01:41:14;18.69;58.51
73112;HTU21D;61301;51.956;5.876;2022-10-30T01:43:45;18.67;58.46
73112;HTU21D;61301;51.956;5.876;2022-10-30T01:46:37;18.63;58.46
73112;HTU21D;61301;51.956;5.876;2022-10-30T01:49:41;18.49;58.64
73112;HTU21D;61301;51.956;5.876;2022-10-30T01:52:15;18.44;58.54
73112;HTU21D;61301;51.956;5.876;2022-10-30T01:55:26;18.40;58.48
73112;HTU21D;61301;51.956;5.876;2022-10-30T01:57:50;18.35;58.62
73112;HTU21D;61301;51.956;5.876;2022-10-30T02:00:22;18.30;58.66
73112;HTU21D;61301;51.956;5.876;2022-10-30T02:02:50;18.29;58.58
73112;HTU21D;61301;51.956;5.876;2022-10-30T02:05:35;18.25;58.66
73112;HTU21D;61301;51.956;5.876;2022-10-30T02:08:02;18.17;58.87
73112;HTU21D;61301;51.956;5.876;2022-10-30T02:10:30;18.20;58.64
73112;HTU21D;61301;51.956;5.876;2022-10-30T02:12:58;18.15;58.65
73112;HTU21D;61301;51.956;5.876;2022-10-30T02:15:25;18.13;58.68
73112;HTU21D;61301;51.956;5.876;2022-10-30T02:17:53;18.15;58.70
73112;HTU21D;61301;51.956;5.876;2022-10-30T02:20:21;18.14;58.65
73112;HTU21D;61301;51.956;5.876;2022-10-30T02:22:47;18.17;58.64
73112;HTU21D;61301;51.956;5.876;2022-10-30T02:25:14;18.13;58.64
73112;HTU21D;61301;51.956;5.876;2022-10-30T02:27:40;18.13;58.67
73112;HTU21D;61301;51.956;5.876;2022-10-30T02:30:10;18.08;58.67
73112;HTU21D;61301;51.956;5.876;2022-10-30T02:32:36;18.04;58.74
73112;HTU21D;61301;51.956;5.876;2022-10-30T02:35:03;17.99;58.82
73112;HTU21D;61301;51.956;5.876;2022-10-30T02:37:30;17.96;58.82
73112;HTU21D;61301;51.956;5.876;2022-10-30T02:39:58;18.00;58.83
73112;HTU21D;61301;51.956;5.876;2022-10-30T02:42:24;18.00;58.80
73112;HTU21D;61301;51.956;5.876;2022-10-30T02:44:52;17.96;58.81
73112;HTU21D;61301;51.956;5.876;2022-10-30T02:47:18;17.89;59.10
73112;HTU21D;61301;51.956;5.876;2022-10-30T02:49:44;17.85;59.08
73112;HTU21D;61301;51.956;5.876;2022-10-30T02:52:10;17.83;59.13
73112;HTU21D;61301;51.956;5.876;2022-10-30T02:54:36;17.70;61.26
73112;HTU21D;61301;51.956;5.876;2022-10-30T02:57:02;17.50;61.56
73112;HTU21D;61301;51.956;5.876;2022-10-30T02:59:28;17.52;60.96
73112;HTU21D;61301;51.956;5.876;2022-10-30T03:01:56;17.52;60.63
73112;HTU21D;61301;51.956;5.876;2022-10-30T03:04:22;17.50;60.37
73112;HTU21D;61301;51.956;5.876;2022-10-30T03:06:48;17.49;60.21
73112;HTU21D;61301;51.956;5.876;2022-10-30T03:09:14;17.60;59.76
73112;HTU21D;61301;51.956;5.876;2022-10-30T03:11:40;17.61;59.80
73112;HTU21D;61301;51.956;5.876;2022-10-30T03:14:06;17.62;59.68
73112;HTU21D;61301;51.956;5.876;2022-10-30T03:16:35;17.62;59.58
73112;HTU21D;61301;51.956;5.876;2022-10-30T03:19:01;17.63;59.50
73112;HTU21D;61301;51.956;5.876;2022-10-30T03:21:27;17.66;59.46
73112;HTU21D;61301;51.956;5.876;2022-10-30T03:23:54;17.65;59.42
73112;HTU21D;61301;51.956;5.876;2022-10-30T03:26:20;17.61;59.51
73112;HTU21D;61301;51.956;5.876;2022-10-30T03:29:05;17.58;59.49
73112;HTU21D;61301;51.956;5.876;2022-10-30T03:31:31;17.56;59.50
73112;HTU21D;61301;51.956;5.876;2022-10-30T03:34:11;17.59;59.42
73112;HTU21D;61301;51.956;5.876;2022-10-30T03:36:40;17.54;59.41
73112;HTU21D;61301;51.956;5.876;2022-10-30T03:39:07;17.53;59.44
73112;HTU21D;61301;51.956;5.876;2022-10-30T03:41:33;17.54;59.38
73112;HTU21D;61301;51.956;5.876;2022-10-30T03:44:00;17.49;59.44
73112;HTU21D;61301;51.956;5.876;2022-10-30T03:46:26;17.48;59.47
73112;HTU21D;61301;51.956;5.876;2022-10-30T03:48:58;17.49;59.46
73112;HTU21D;61301;51.956;5.876;2022-10-30T03:51:24;17.48;59.42
73112;HTU21D;61301;51.956;5.876;2022-10-30T03:53:50;17.48;59.43
73112;HTU21D;61301;51.956;5.876;2022-10-30T03:56:16;17.46;59.42
73112;HTU21D;61301;51.956;5.876;2022-10-30T03:58:48;17.45;59.42
73112;HTU21D;61301;51.956;5.876;2022-10-30T04:01:19;17.44;59.41
73112;HTU21D;61301;51.956;5.876;2022-10-30T04:03:49;17.44;59.38
73112;HTU21D;61301;51.956;5.876;2022-10-30T04:06:15;17.45;59.38
73112;HTU21D;61301;51.956;5.876;2022-10-30T04:08:42;17.46;59.35
73112;HTU21D;61301;51.956;5.876;2022-10-30T04:11:10;17.46;59.39
73112;HTU21D;61301;51.956;5.876;2022-10-30T04:13:36;17.43;59.59
73112;HTU21D;61301;51.956;5.876;2022-10-30T04:16:03;17.40;59.61
73112;HTU21D;61301;51.956;5.876;2022-10-30T04:18:30;17.45;59.60
73112;HTU21D;61301;51.956;5.876;2022-10-30T04:20:58;17.46;59.53
73112;HTU21D;61301;51.956;5.876;2022-10-30T04:23:24;17.41;59.57
73112;HTU21D;61301;51.956;5.876;2022-10-30T04:25:50;17.38;59.57
73112;HTU21D;61301;51.956;5.876;2022-10-30T04:28:17;17.36;59.57
73112;HTU21D;61301;51.956;5.876;2022-10-30T04:30:43;17.36;59.51
73112;HTU21D;61301;51.956;5.876;2022-10-30T04:33:13;17.33;59.64
73112;HTU21D;61301;51.956;5.876;2022-10-30T04:35:40;17.32;59.69
73112;HTU21D;61301;51.956;5.876;2022-10-30T04:38:14;17.29;59.69
73112;HTU21D;61301;51.956;5.876;2022-10-30T04:40:42;17.26;59.71
73112;HTU21D;61301;51.956;5.876;2022-10-30T04:43:11;17.25;59.72
73112;HTU21D;61301;51.956;5.876;2022-10-30T04:45:38;17.24;59.73
73112;HTU21D;61301;51.956;5.876;2022-10-30T04:48:10;17.19;59.88
73112;HTU21D;61301;51.956;5.876;2022-10-30T04:50:37;17.02;60.28
73112;HTU21D;61301;51.956;5.876;2022-10-30T04:53:06;16.94;60.38
73112;HTU21D;61301;51.956;5.876;2022-10-30T04:55:32;16.93;60.37
73112;HTU21D;61301;51.956;5.876;2022-10-30T04:57:59;16.92;60.28
73112;HTU21D;61301;51.956;5.876;2022-10-30T05:00:30;16.87;60.31
73112;HTU21D;61301;51.956;5.876;2022-10-30T05:03:02;16.80;60.37
73112;HTU21D;61301;51.956;5.876;2022-10-30T05:05:29;16.72;60.62
73112;HTU21D;61301;51.956;5.876;2022-10-30T05:07:55;16.63;60.73
73112;HTU21D;61301;51.956;5.876;2022-10-30T05:10:22;16.55;61.13
73112;HTU21D;61301;51.956;5.876;2022-10-30T05:12:51;16.42;62.55
73112;HTU21D;61301;51.956;5.876;2022-10-30T05:15:18;16.41;61.90
73112;HTU21D;61301;51.956;5.876;2022-10-30T05:17:44;16.42;61.83
73112;HTU21D;61301;51.956;5.876;2022-10-30T05:20:10;16.43;61.68
73112;HTU21D;61301;51.956;5.876;2022-10-30T05:22:36;16.45;61.47
73112;HTU21D;61301;51.956;5.876;2022-10-30T05:25:02;16.52;61.22
73112;HTU21D;61301;51.956;5.876;2022-10-30T05:27:28;16.50;61.26
73112;HTU21D;61301;51.956;5.876;2022-10-30T05:29:55;16.44;61.63
73112;HTU21D;61301;51.956;5.876;2022-10-30T05:32:21;16.41;61.67
73112;HTU21D;61301;51.956;5.876;2022-10-30T05:34:48;16.32;62.67
73112;HTU21D;61301;51.956;5.876;2022-10-30T05:37:19;16.42;62.30
73112;HTU21D;61301;51.956;5.876;2022-10-30T05:39:45;16.49;62.02
73112;HTU21D;61301;51.956;5.876;2022-10-30T05:42:25;16.59;61.82
73112;HTU21D;61301;51.956;5.876;2022-10-30T05:44:52;16.64;61.68
73112;HTU21D;61301;51.956;5.876;2022-10-30T05:47:19;16.64;61.54
73112;HTU21D;61301;51.956;5.876;2022-10-30T05:49:50;16.58;61.76
73112;HTU21D;61301;51.956;5.876;2022-10-30T05:52:19;16.55;61.77
73112;HTU21D;61301;51.956;5.876;2022-10-30T05:54:48;16.47;61.92
73112;HTU21D;61301;51.956;5.876;2022-10-30T05:57:27;16.39;62.15
73112;HTU21D;61301;51.956;5.876;2022-10-30T05:59:54;16.43;62.16
73112;HTU21D;61301;51.956;5.876;2022-10-30T06:02:20;16.40;62.84
73112;HTU21D;61301;51.956;5.876;2022-10-30T06:04:46;16.43;62.43
73112;HTU21D;61301;51.956;5.876;2022-10-30T06:07:13;16.48;62.31
73112;HTU21D;61301;51.956;5.876;2022-10-30T06:09:39;16.56;62.26
73112;HTU21D;61301;51.956;5.876;2022-10-30T06:12:23;16.60;62.05
73112;HTU21D;61301;51.956;5.876;2022-10-30T06:15:09;16.62;61.89
73112;HTU21D;61301;51.956;5.876;2022-10-30T06:17:36;16.61;61.89
73112;HTU21D;61301;51.956;5.876;2022-10-30T06:20:15;16.44;62.34
73112;HTU21D;61301;51.956;5.876;2022-10-30T06:22:54;16.33;62.17
73112;HTU21D;61301;51.956;5.876;2022-10-30T06:25:22;16.29;62.11
73112;HTU21D;61301;51.956;5.876;2022-10-30T06:28:27;16.22;61.96
73112;HTU21D;61301;51.956;5.876;2022-10-30T06:30:53;16.17;61.90
73112;HTU21D;61301;51.956;5.876;2022-10-30T06:33:20;16.13;61.91
73112;HTU21D;61301;51.956;5.876;2022-10-30T06:35:49;16.14;61.83
73112;HTU21D;61301;51.956;5.876;2022-10-30T06:38:16;16.15;61.97
73112;HTU21D;61301;51.956;5.876;2022-10-30T06:40:44;16.12;61.96
73112;HTU21D;61301;51.956;5.876;2022-10-30T06:43:36;16.13;61.96
73112;HTU21D;61301;51.956;5.876;2022-10-30T06:46:10;16.18;61.86
73112;HTU21D;61301;51.956;5.876;2022-10-30T06:48:39;16.21;61.72
73112;HTU21D;61301;51.956;5.876;2022-10-30T06:51:05;16.20;61.69
73112;HTU21D;61301;51.956;5.876;2022-10-30T06:53:35;16.14;61.69
73112;HTU21D;61301;51.956;5.876;2022-10-30T06:56:19;16.10;61.73
73112;HTU21D;61301;51.956;5.876;2022-10-30T06:59:02;16.13;61.71
73112;HTU21D;61301;51.956;5.876;2022-10-30T07:01:43;16.13;61.71
73112;HTU21D;61301;51.956;5.876;2022-10-30T07:04:22;16.13;62.05
73112;HTU21D;61301;51.956;5.876;2022-10-30T07:06:49;16.13;62.01
73112;HTU21D;61301;51.956;5.876;2022-10-30T07:09:17;16.21;61.89
73112;HTU21D;61301;51.956;5.876;2022-10-30T07:11:43;16.22;62.02
73112;HTU21D;61301;51.956;5.876;2022-10-30T07:14:36;16.24;62.26
73112;HTU21D;61301;51.956;5.876;2022-10-30T07:17:13;16.20;62.84
73112;HTU21D;61301;51.956;5.876;2022-10-30T07:19:42;16.27;62.50
73112;HTU21D;61301;51.956;5.876;2022-10-30T07:22:09;16.34;62.31
73112;HTU21D;61301;51.956;5.876;2022-10-30T07:24:37;16.39;62.37
73112;HTU21D;61301;51.956;5.876;2022-10-30T07:27:22;16.42;62.24
73112;HTU21D;61301;51.956;5.876;2022-10-30T07:30:15;16.47;62.08
73112;HTU21D;61301;51.956;5.876;2022-10-30T07:33:04;16.56;62.01
73112;HTU21D;61301;51.956;5.876;2022-10-30T07:35:50;16.62;61.95
73112;HTU21D;61301;51.956;5.876;2022-10-30T07:38:28;16.70;61.91
73112;HTU21D;61301;51.956;5.876;2022-10-30T07:41:01;16.81;61.84
73112;HTU21D;61301;51.956;5.876;2022-10-30T07:43:47;16.91;61.77
73112;HTU21D;61301;51.956;5.876;2022-10-30T07:46:32;17.04;61.76
73112;HTU21D;61301;51.956;5.876;2022-10-30T07:49:20;17.14;61.67
73112;HTU21D;61301;51.956;5.876;2022-10-30T07:51:52;17.26;61.57
73112;HTU21D;61301;51.956;5.876;2022-10-30T07:54:18;17.37;61.50
73112;HTU21D;61301;51.956;5.876;2022-10-30T07:56:44;17.43;61.48
73112;HTU21D;61301;51.956;5.876;2022-10-30T07:59:29;17.47;61.44
73112;HTU21D;61301;51.956;5.876;2022-10-30T08:02:31;17.49;61.47
73112;HTU21D;61301;51.956;5.876;2022-10-30T08:05:12;17.51;61.66
73112;HTU21D;61301;51.956;5.876;2022-10-30T08:08:01;17.60;61.60
73112;HTU21D;61301;51.956;5.876;2022-10-30T08:10:27;17.69;61.60
73112;HTU21D;61301;51.956;5.876;2022-10-30T08:12:53;17.82;61.54
73112;HTU21D;61301;51.956;5.876;2022-10-30T08:15:20;17.93;61.47
73112;HTU21D;61301;51.956;5.876;2022-10-30T08:17:47;18.07;61.51
73112;HTU21D;61301;51.956;5.876;2022-10-30T08:20:15;18.17;61.58
73112;HTU21D;61301;51.956;5.876;2022-10-30T08:22:49;18.25;61.69
73112;HTU21D;61301;51.956;5.876;2022-10-30T08:25:22;18.30;61.63
73112;HTU21D;61301;51.956;5.876;2022-10-30T08:30:26;18.49;61.49
73112;HTU21D;61301;51.956;5.876;2022-10-30T08:32:59;18.62;61.41
73112;HTU21D;61301;51.956;5.876;2022-10-30T08:35:47;18.74;61.29
73112;HTU21D;61301;51.956;5.876;2022-10-30T08:38:14;18.85;61.21
73112;HTU21D;61301;51.956;5.876;2022-10-30T08:40:42;18.99;61.16
73112;HTU21D;61301;51.956;5.876;2022-10-30T08:43:09;19.10;61.19
73112;HTU21D;61301;51.956;5.876;2022-10-30T08:45:35;19.09;61.37
73112;HTU21D;61301;51.956;5.876;2022-10-30T08:48:10;19.18;61.26
73112;HTU21D;61301;51.956;5.876;2022-10-30T08:50:39;19.26;61.02
73112;HTU21D;61301;51.956;5.876;2022-10-30T08:53:12;19.38;60.85
73112;HTU21D;61301;51.956;5.876;2022-10-30T08:55:38;19.46;60.74
73112;HTU21D;61301;51.956;5.876;2022-10-30T08:58:09;19.52;60.64
73112;HTU21D;61301;51.956;5.876;2022-10-30T09:00:36;19.60;60.54
73112;HTU21D;61301;51.956;5.876;2022-10-30T09:03:26;19.65;60.45
73112;HTU21D;61301;51.956;5.876;2022-10-30T09:06:11;19.75;60.47
73112;HTU21D;61301;51.956;5.876;2022-10-30T09:09:09;19.89;60.34
73112;HTU21D;61301;51.956;5.876;2022-10-30T09:11:46;19.98;60.07
73112;HTU21D;61301;51.956;5.876;2022-10-30T09:14:14;20.13;59.92
73112;HTU21D;61301;51.956;5.876;2022-10-30T09:16:40;20.27;59.70
73112;HTU21D;61301;51.956;5.876;2022-10-30T09:19:08;20.39;59.61
73112;HTU21D;61301;51.956;5.876;2022-10-30T09:21:35;20.54;59.48
73112;HTU21D;61301;51.956;5.876;2022-10-30T09:24:02;20.70;59.35
73112;HTU21D;61301;51.956;5.876;2022-10-30T09:26:48;20.86;59.23
73112;HTU21D;61301;51.956;5.876;2022-10-30T09:29:22;21.00;59.10
73112;HTU21D;61301;51.956;5.876;2022-10-30T09:32:03;21.19;58.45
73112;HTU21D;61301;51.956;5.876;2022-10-30T09:34:36;21.32;57.90
73112;HTU21D;61301;51.956;5.876;2022-10-30T09:37:12;21.43;57.63
73112;HTU21D;61301;51.956;5.876;2022-10-30T09:39:43;21.58;57.26
73112;HTU21D;61301;51.956;5.876;2022-10-30T09:42:39;21.78;56.09
73112;HTU21D;61301;51.956;5.876;2022-10-30T09:45:42;21.91;56.25
73112;HTU21D;61301;51.956;5.876;2022-10-30T09:48:26;22.04;55.25
73112;HTU21D;61301;51.956;5.876;2022-10-30T09:56:44;22.38;55.71
73112;HTU21D;61301;51.956;5.876;2022-10-30T10:02:21;22.58;55.00
73112;HTU21D;61301;51.956;5.876;2022-10-30T10:04:51;22.71;54.42
73112;HTU21D;61301;51.956;5.876;2022-10-30T10:07:41;22.79;53.97
73112;HTU21D;61301;51.956;5.876;2022-10-30T10:13:04;22.82;53.27
73112;HTU21D;61301;51.956;5.876;2022-10-30T10:15:47;22.69;53.84
73112;HTU21D;61301;51.956;5.876;2022-10-30T10:18:28;22.70;54.38
73112;HTU21D;61301;51.956;5.876;2022-10-30T10:20:59;22.67;54.91
73112;HTU21D;61301;51.956;5.876;2022-10-30T10:23:34;22.76;53.75
73112;HTU21D;61301;51.956;5.876;2022-10-30T10:26:20;22.92;54.25
73112;HTU21D;61301;51.956;5.876;2022-10-30T10:34:13;23.35;54.11
73112;HTU21D;61301;51.956;5.876;2022-10-30T10:36:59;23.35;53.42
73112;HTU21D;61301;51.956;5.876;2022-10-30T10:45:19;23.27;54.20
73112;HTU21D;61301;51.956;5.876;2022-10-30T10:50:28;23.34;53.59
73112;HTU21D;61301;51.956;5.876;2022-10-30T10:55:31;23.25;53.76
73112;HTU21D;61301;51.956;5.876;2022-10-30T10:58:10;23.32;54.07
73112;HTU21D;61301;51.956;5.876;2022-10-30T11:00:39;23.39;53.85
73112;HTU21D;61301;51.956;5.876;2022-10-30T11:03:12;23.46;53.80
73112;HTU21D;61301;51.956;5.876;2022-10-30T11:10:44;23.71;52.82
73112;HTU21D;61301;51.956;5.876;2022-10-30T11:13:14;23.79;52.35
73112;HTU21D;61301;51.956;5.876;2022-10-30T11:18:11;23.84;51.93
73112;HTU21D;61301;51.956;5.876;2022-10-30T11:20:43;23.95;51.84
73112;HTU21D;61301;51.956;5.876;2022-10-30T11:26:00;24.00;51.55
73112;HTU21D;61301;51.956;5.876;2022-10-30T11:31:25;24.10;51.35
73112;HTU21D;61301;51.956;5.876;2022-10-30T11:34:14;24.08;50.18
73112;HTU21D;61301;51.956;5.876;2022-10-30T11:36:49;24.09;50.97
73112;HTU21D;61301;51.956;5.876;2022-10-30T11:39:18;24.10;51.01
73112;HTU21D;61301;51.956;5.876;2022-10-30T11:41:57;24.20;51.39
73112;HTU21D;61301;51.956;5.876;2022-10-30T11:44:40;24.27;51.19
73112;HTU21D;61301;51.956;5.876;2022-10-30T11:47:08;24.30;51.50
73112;HTU21D;61301;51.956;5.876;2022-10-30T11:49:55;24.41;50.30
73112;HTU21D;61301;51.956;5.876;2022-10-30T11:52:24;24.44;50.24
73112;HTU21D;61301;51.956;5.876;2022-10-30T11:55:07;24.44;49.48
73112;HTU21D;61301;51.956;5.876;2022-10-30T11:57:41;24.43;49.64
73112;HTU21D;61301;51.956;5.876;2022-10-30T12:00:22;24.48;49.21
73112;HTU21D;61301;51.956;5.876;2022-10-30T12:02:51;24.56;49.74
73112;HTU21D;61301;51.956;5.876;2022-10-30T12:05:39;24.68;49.53
73112;HTU21D;61301;51.956;5.876;2022-10-30T12:13:15;24.80;49.67
73112;HTU21D;61301;51.956;5.876;2022-10-30T12:15:43;24.75;48.20
73112;HTU21D;61301;51.956;5.876;2022-10-30T12:18:19;24.77;48.79
73112;HTU21D;61301;51.956;5.876;2022-10-30T12:20:49;24.80;48.34
73112;HTU21D;61301;51.956;5.876;2022-10-30T12:23:19;24.82;48.47
73112;HTU21D;61301;51.956;5.876;2022-10-30T12:25:48;24.83;48.53
73112;HTU21D;61301;51.956;5.876;2022-10-30T12:28:18;25.00;48.90
73112;HTU21D;61301;51.956;5.876;2022-10-30T12:30:52;25.03;49.52
73112;HTU21D;61301;51.956;5.876;2022-10-30T12:33:26;25.09;49.35
73112;HTU21D;61301;51.956;5.876;2022-10-30T12:35:57;25.17;49.45
73112;HTU21D;61301;51.956;5.876;2022-10-30T12:39:19;25.27;49.53
73112;HTU21D;61301;51.956;5.876;2022-10-30T12:41:32;25.28;49.07
73112;HTU21D;61301;51.956;5.876;2022-10-30T12:44:11;25.36;48.49
73112;HTU21D;61301;51.956;5.876;2022-10-30T12:47:10;25.36;47.51
73112;HTU21D;61301;51.956;5.876;2022-10-30T12:49:42;25.25;48.10
73112;HTU21D;61301;51.956;5.876;2022-10-30T12:52:18;25.23;47.28
73112;HTU21D;61301;51.956;5.876;2022-10-30T12:54:56;25.09;48.19
73112;HTU21D;61301;51.956;5.876;2022-10-30T12:57:34;25.04;47.67
73112;HTU21D;61301;51.956;5.876;2022-10-30T13:00:14;24.97;48.71
73112;HTU21D;61301;51.956;5.876;2022-10-30T13:05:38;25.03;48.08
73112;HTU21D;61301;51.956;5.876;2022-10-30T13:08:15;24.91;48.12
73112;HTU21D;61301;51.956;5.876;2022-10-30T13:10:58;24.83;48.41
73112;HTU21D;61301;51.956;5.876;2022-10-30T13:13:31;24.71;49.29
73112;HTU21D;61301;51.956;5.876;2022-10-30T13:16:00;24.65;49.09
73112;HTU21D;61301;51.956;5.876;2022-10-30T13:18:27;24.64;49.53
73112;HTU21D;61301;51.956;5.876;2022-10-30T13:23:47;24.47;49.82
73112;HTU21D;61301;51.956;5.876;2022-10-30T13:29:14;24.73;49.29
73112;HTU21D;61301;51.956;5.876;2022-10-30T13:35:25;25.20;48.79
73112;HTU21D;61301;51.956;5.876;2022-10-30T13:40:55;24.92;48.12
73112;HTU21D;61301;51.956;5.876;2022-10-30T13:43:36;24.85;48.89
73112;HTU21D;61301;51.956;5.876;2022-10-30T13:51:52;24.73;49.02
73112;HTU21D;61301;51.956;5.876;2022-10-30T13:54:33;24.74;48.62
73112;HTU21D;61301;51.956;5.876;2022-10-30T13:59:59;24.58;49.02
73112;HTU21D;61301;51.956;5.876;2022-10-30T14:08:05;24.47;49.22
73112;HTU21D;61301;51.956;5.876;2022-10-30T14:10:43;24.43;49.47
73112;HTU21D;61301;51.956;5.876;2022-10-30T14:16:04;24.29;49.81
73112;HTU21D;61301;51.956;5.876;2022-10-30T14:18:45;24.32;49.97
73112;HTU21D;61301;51.956;5.876;2022-10-30T14:24:07;24.29;50.02
73112;HTU21D;61301;51.956;5.876;2022-10-30T14:26:35;24.23;50.26
73112;HTU21D;61301;51.956;5.876;2022-10-30T14:37:11;24.08;51.30
73112;HTU21D;61301;51.956;5.876;2022-10-30T14:39:44;24.14;51.24
73112;HTU21D;61301;51.956;5.876;2022-10-30T14:42:19;24.21;51.21
73112;HTU21D;61301;51.956;5.876;2022-10-30T14:45:16;24.30;51.13
73112;HTU21D;61301;51.956;5.876;2022-10-30T14:53:23;24.33;51.33
73112;HTU21D;61301;51.956;5.876;2022-10-30T14:58:39;24.27;51.57
73112;HTU21D;61301;51.956;5.876;2022-10-30T15:01:32;24.26;51.76
73112;HTU21D;61301;51.956;5.876;2022-10-30T15:09:21;24.20;51.91
73112;HTU21D;61301;51.956;5.876;2022-10-30T15:12:38;24.12;52.17
73112;HTU21D;61301;51.956;5.876;2022-10-30T15:14:43;24.09;52.39
73112;HTU21D;61301;51.956;5.876;2022-10-30T15:17:31;24.14;52.46
73112;HTU21D;61301;51.956;5.876;2022-10-30T15:20:01;24.08;51.95
73112;HTU21D;61301;51.956;5.876;2022-10-30T15:22:28;24.02;51.98
73112;HTU21D;61301;51.956;5.876;2022-10-30T15:24:55;24.03;51.98
73112;HTU21D;61301;51.956;5.876;2022-10-30T15:27:22;23.97;52.05
73112;HTU21D;61301;51.956;5.876;2022-10-30T15:29:54;23.95;51.82
73112;HTU21D;61301;51.956;5.876;2022-10-30T15:32:23;23.85;52.00
73112;HTU21D;61301;51.956;5.876;2022-10-30T15:34:53;23.80;52.32
73112;HTU21D;61301;51.956;5.876;2022-10-30T15:37:20;23.70;52.62
73112;HTU21D;61301;51.956;5.876;2022-10-30T15:39:47;23.59;52.81
73112;HTU21D;61301;51.956;5.876;2022-10-30T15:42:13;23.53;52.81
73112;HTU21D;61301;51.956;5.876;2022-10-30T15:44:42;23.47;52.94
73112;HTU21D;61301;51.956;5.876;2022-10-30T15:47:16;23.40;53.10
73112;HTU21D;61301;51.956;5.876;2022-10-30T15:49:50;23.35;53.36
73112;HTU21D;61301;51.956;5.876;2022-10-30T15:52:22;23.18;54.27
73112;HTU21D;61301;51.956;5.876;2022-10-30T15:54:59;23.12;54.23
73112;HTU21D;61301;51.956;5.876;2022-10-30T15:57:32;23.17;54.02
73112;HTU21D;61301;51.956;5.876;2022-10-30T16:00:04;23.23;53.90
73112;HTU21D;61301;51.956;5.876;2022-10-30T16:02:32;23.27;53.77
73112;HTU21D;61301;51.956;5.876;2022-10-30T16:04:58;23.24;53.85
73112;HTU21D;61301;51.956;5.876;2022-10-30T16:07:26;23.15;54.24
73112;HTU21D;61301;51.956;5.876;2022-10-30T16:09:56;23.03;55.16
73112;HTU21D;61301;51.956;5.876;2022-10-30T16:12:30;22.86;55.63
73112;HTU21D;61301;51.956;5.876;2022-10-30T16:15:06;22.80;55.35
73112;HTU21D;61301;51.956;5.876;2022-10-30T16:17:33;22.82;55.06
73112;HTU21D;61301;51.956;5.876;2022-10-30T16:20:02;22.85;54.85
73112;HTU21D;61301;51.956;5.876;2022-10-30T16:22:32;22.88;54.72
73112;HTU21D;61301;51.956;5.876;2022-10-30T16:25:00;22.87;54.66
73112;HTU21D;61301;51.956;5.876;2022-10-30T16:27:31;22.84;54.68
73112;HTU21D;61301;51.956;5.876;2022-10-30T16:29:58;22.80;54.80
73112;HTU21D;61301;51.956;5.876;2022-10-30T16:32:28;22.75;54.99
73112;HTU21D;61301;51.956;5.876;2022-10-30T16:34:56;22.67;55.36
73112;HTU21D;61301;51.956;5.876;2022-10-30T16:37:27;22.60;55.42
73112;HTU21D;61301;51.956;5.876;2022-10-30T16:39:56;22.48;55.75
73112;HTU21D;61301;51.956;5.876;2022-10-30T16:42:25;22.38;55.92
73112;HTU21D;61301;51.956;5.876;2022-10-30T16:45:44;22.38;55.74
73112;HTU21D;61301;51.956;5.876;2022-10-30T16:48:24;22.33;55.88
73112;HTU21D;61301;51.956;5.876;2022-10-30T16:50:58;22.27;55.92
73112;HTU21D;61301;51.956;5.876;2022-10-30T16:53:25;22.27;55.72
73112;HTU21D;61301;51.956;5.876;2022-10-30T16:55:53;22.27;55.68
73112;HTU21D;61301;51.956;5.876;2022-10-30T16:58:19;22.23;55.71
73112;HTU21D;61301;51.956;5.876;2022-10-30T17:00:53;22.14;56.17
73112;HTU21D;61301;51.956;5.876;2022-10-30T17:03:22;22.11;56.10
73112;HTU21D;61301;51.956;5.876;2022-10-30T17:06:00;22.17;56.01
73112;HTU21D;61301;51.956;5.876;2022-10-30T17:08:41;22.09;56.39
73112;HTU21D;61301;51.956;5.876;2022-10-30T17:11:18;22.05;56.73
73112;HTU21D;61301;51.956;5.876;2022-10-30T17:16:30;21.84;57.42
73112;HTU21D;61301;51.956;5.876;2022-10-30T17:21:57;21.65;58.41
73112;HTU21D;61301;51.956;5.876;2022-10-30T17:24:28;21.64;58.05
73112;HTU21D;61301;51.956;5.876;2022-10-30T17:27:02;21.70;57.89
73112;HTU21D;61301;51.956;5.876;2022-10-30T17:32:24;21.64;57.75
73112;HTU21D;61301;51.956;5.876;2022-10-30T17:34:57;21.65;57.45
73112;HTU21D;61301;51.956;5.876;2022-10-30T17:37:25;21.67;57.32
73112;HTU21D;61301;51.956;5.876;2022-10-30T17:39:51;21.68;57.17
73112;HTU21D;61301;51.956;5.876;2022-10-30T17:42:17;21.75;56.93
73112;HTU21D;61301;51.956;5.876;2022-10-30T17:44:43;21.78;56.87
73112;HTU21D;61301;51.956;5.876;2022-10-30T17:47:16;21.76;57.21
73112;HTU21D;61301;51.956;5.876;2022-10-30T17:49:43;21.75;56.91
73112;HTU21D;61301;51.956;5.876;2022-10-30T17:52:15;21.79;56.79
73112;HTU21D;61301;51.956;5.876;2022-10-30T17:54:42;21.77;56.75
73112;HTU21D;61301;51.956;5.876;2022-10-30T17:57:12;21.70;57.01
73112;HTU21D;61301;51.956;5.876;2022-10-30T17:59:40;21.67;56.92